sensor_id;sensor_type;location;lat;lon;timestamp;P1;durP1;ratioP1;P2;durP2;ratioP2
42144;SDS011;27813;43.516;11.890;2023-02-23T00:03:56;16.40;;;10.25;;
42144;SDS011;27813;43.516;11.890;2023-02-23T00:08:01;18.00;;;10.13;;
42144;SDS011;27813;43.516;11.890;2023-02-23T00:12:05;16.83;;;9.50;;
42144;SDS011;27813;43.516;11.890;2023-02-23T00:20:15;20.35;;;12.02;;
42144;SDS011;27813;43.516;11.890;2023-02-23T00:24:27;17.10;;;10.82;;
42144;SDS011;27813;43.516;11.890;2023-02-23T00:28:31;14.90;;;8.80;;
42144;SDS011;27813;43.516;11.890;2023-02-23T05:34:36;27.10;;;11.52;;
42144;SDS011;27813;43.516;11.890;2023-02-23T05:38:41;30.83;;;12.48;;
42144;SDS011;27813;43.516;11.890;2023-02-23T05:42:48;29.60;;;12.27;;
42144;SDS011;27813;43.516;11.890;2023-02-23T05:46:52;28.05;;;12.40;;
42144;SDS011;27813;43.516;11.890;2023-02-23T05:51:00;30.38;;;14.13;;
42144;SDS011;27813;43.516;11.890;2023-02-23T05:55:05;26.52;;;13.43;;
42144;SDS011;27813;43.516;11.890;2023-02-23T05:59:10;34.42;;;13.05;;
42144;SDS011;27813;43.516;11.890;2023-02-23T06:03:15;31.92;;;14.65;;
42144;SDS011;27813;43.516;11.890;2023-02-23T06:07:20;38.10;;;17.52;;
42144;SDS011;27813;43.516;11.890;2023-02-23T06:11:25;37.33;;;15.00;;
42144;SDS011;27813;43.516;11.890;2023-02-23T06:15:29;38.95;;;16.33;;
42144;SDS011;27813;43.516;11.890;2023-02-23T06:19:33;40.03;;;18.10;;
42144;SDS011;27813;43.516;11.890;2023-02-23T06:23:38;52.00;;;19.15;;
42144;SDS011;27813;43.516;11.890;2023-02-23T06:27:45;42.35;;;17.45;;
42144;SDS011;27813;43.516;11.890;2023-02-23T06:31:49;73.88;;;27.30;;
42144;SDS011;27813;43.516;11.890;2023-02-23T06:35:53;43.53;;;18.13;;
42144;SDS011;27813;43.516;11.890;2023-02-23T06:39:58;40.15;;;16.45;;
42144;SDS011;27813;43.516;11.890;2023-02-23T06:44:03;43.50;;;18.33;;
42144;SDS011;27813;43.516;11.890;2023-02-23T06:48:07;44.47;;;16.08;;
42144;SDS011;27813;43.516;11.890;2023-02-23T06:52:11;47.88;;;18.67;;
42144;SDS011;27813;43.516;11.890;2023-02-23T06:56:15;57.35;;;17.50;;
42144;SDS011;27813;43.516;11.890;2023-02-23T07:00:20;50.50;;;17.70;;
42144;SDS011;27813;43.516;11.890;2023-02-23T07:04:24;50.17;;;17.55;;
42144;SDS011;27813;43.516;11.890;2023-02-23T07:08:28;58.55;;;19.33;;
42144;SDS011;27813;43.516;11.890;2023-02-23T07:12:33;54.08;;;19.23;;
42144;SDS011;27813;43.516;11.890;2023-02-23T07:16:37;59.75;;;23.00;;
42144;SDS011;27813;43.516;11.890;2023-02-23T07:20:42;44.15;;;16.83;;
42144;SDS011;27813;43.516;11.890;2023-02-23T07:24:47;48.40;;;17.85;;
42144;SDS011;27813;43.516;11.890;2023-02-23T07:28:51;46.65;;;18.80;;
42144;SDS011;27813;43.516;11.890;2023-02-23T07:32:56;37.63;;;17.27;;
42144;SDS011;27813;43.516;11.890;2023-02-23T07:37:00;45.38;;;18.63;;
42144;SDS011;27813;43.516;11.890;2023-02-23T07:41:04;51.42;;;20.40;;
42144;SDS011;27813;43.516;11.890;2023-02-23T07:45:08;55.15;;;19.85;;
42144;SDS011;27813;43.516;11.890;2023-02-23T07:53:17;63.20;;;25.38;;
42144;SDS011;27813;43.516;11.890;2023-02-23T07:57:21;64.13;;;26.58;;
42144;SDS011;27813;43.516;11.890;2023-02-23T08:01:26;75.65;;;26.30;;
42144;SDS011;27813;43.516;11.890;2023-02-23T08:05:30;74.30;;;28.05;;
42144;SDS011;27813;43.516;11.890;2023-02-23T08:09:35;74.05;;;29.75;;
42144;SDS011;27813;43.516;11.890;2023-02-23T08:13:39;56.45;;;25.30;;
42144;SDS011;27813;43.516;11.890;2023-02-23T08:21:48;47.33;;;21.80;;
42144;SDS011;27813;43.516;11.890;2023-02-23T08:25:52;49.30;;;21.30;;
42144;SDS011;27813;43.516;11.890;2023-02-23T08:29:56;51.63;;;23.13;;
42144;SDS011;27813;43.516;11.890;2023-02-23T08:34:04;57.22;;;24.52;;
42144;SDS011;27813;43.516;11.890;2023-02-23T08:38:08;70.68;;;31.27;;
42144;SDS011;27813;43.516;11.890;2023-02-23T08:42:12;76.40;;;32.78;;
42144;SDS011;27813;43.516;11.890;2023-02-23T08:46:16;73.80;;;33.13;;
42144;SDS011;27813;43.516;11.890;2023-02-23T08:50:22;66.50;;;31.73;;
42144;SDS011;27813;43.516;11.890;2023-02-23T08:54:31;60.47;;;29.38;;
42144;SDS011;27813;43.516;11.890;2023-02-23T08:58:35;60.25;;;28.13;;
42144;SDS011;27813;43.516;11.890;2023-02-23T09:02:40;59.42;;;29.20;;
42144;SDS011;27813;43.516;11.890;2023-02-23T09:06:45;63.67;;;29.88;;
42144;SDS011;27813;43.516;11.890;2023-02-23T09:10:49;65.15;;;31.48;;
42144;SDS011;27813;43.516;11.890;2023-02-23T09:14:55;61.08;;;32.15;;
42144;SDS011;27813;43.516;11.890;2023-02-23T09:23:04;54.95;;;29.35;;
42144;SDS011;27813;43.516;11.890;2023-02-23T09:27:08;52.33;;;28.38;;
42144;SDS011;27813;43.516;11.890;2023-02-23T09:31:19;47.35;;;26.42;;
42144;SDS011;27813;43.516;11.890;2023-02-23T09:35:25;43.88;;;28.88;;
42144;SDS011;27813;43.516;11.890;2023-02-23T09:39:29;38.47;;;25.33;;
42144;SDS011;27813;43.516;11.890;2023-02-23T09:43:46;33.65;;;22.75;;
42144;SDS011;27813;43.516;11.890;2023-02-23T09:48:10;30.02;;;19.85;;
42144;SDS011;27813;43.516;11.890;2023-02-23T09:52:23;23.42;;;16.48;;
42144;SDS011;27813;43.516;11.890;2023-02-23T09:56:37;24.10;;;15.38;;
42144;SDS011;27813;43.516;11.890;2023-02-23T10:00:46;23.75;;;14.25;;
42144;SDS011;27813;43.516;11.890;2023-02-23T10:05:13;18.92;;;13.02;;
42144;SDS011;27813;43.516;11.890;2023-02-23T10:13:40;17.17;;;12.80;;
42144;SDS011;27813;43.516;11.890;2023-02-23T10:22:22;21.15;;;13.05;;
42144;SDS011;27813;43.516;11.890;2023-02-23T10:26:32;16.52;;;12.38;;
42144;SDS011;27813;43.516;11.890;2023-02-23T10:31:06;18.08;;;12.88;;
42144;SDS011;27813;43.516;11.890;2023-02-23T10:35:30;16.33;;;12.25;;
42144;SDS011;27813;43.516;11.890;2023-02-23T10:39:35;14.88;;;10.55;;
42144;SDS011;27813;43.516;11.890;2023-02-23T10:43:39;13.32;;;10.05;;
42144;SDS011;27813;43.516;11.890;2023-02-23T10:47:44;13.77;;;10.75;;
42144;SDS011;27813;43.516;11.890;2023-02-23T10:51:49;20.33;;;12.10;;
42144;SDS011;27813;43.516;11.890;2023-02-23T11:08:35;12.40;;;8.77;;
42144;SDS011;27813;43.516;11.890;2023-02-23T11:12:43;14.38;;;9.23;;
42144;SDS011;27813;43.516;11.890;2023-02-23T11:16:47;9.23;;;6.10;;
42144;SDS011;27813;43.516;11.890;2023-02-23T11:20:53;9.98;;;5.70;;
42144;SDS011;27813;43.516;11.890;2023-02-23T11:24:59;8.27;;;5.07;;
42144;SDS011;27813;43.516;11.890;2023-02-23T11:33:25;9.23;;;5.00;;
42144;SDS011;27813;43.516;11.890;2023-02-23T11:37:38;9.50;;;5.80;;
42144;SDS011;27813;43.516;11.890;2023-02-23T11:41:44;7.32;;;5.03;;
42144;SDS011;27813;43.516;11.890;2023-02-23T11:45:50;10.65;;;6.30;;
42144;SDS011;27813;43.516;11.890;2023-02-23T11:49:57;9.35;;;6.15;;
42144;SDS011;27813;43.516;11.890;2023-02-23T11:54:02;6.65;;;4.10;;
42144;SDS011;27813;43.516;11.890;2023-02-23T11:58:21;7.53;;;4.50;;
42144;SDS011;27813;43.516;11.890;2023-02-23T12:02:30;7.53;;;4.93;;
42144;SDS011;27813;43.516;11.890;2023-02-23T12:06:36;6.13;;;4.20;;
42144;SDS011;27813;43.516;11.890;2023-02-23T12:10:47;7.65;;;4.95;;
42144;SDS011;27813;43.516;11.890;2023-02-23T12:15:11;6.38;;;4.75;;
42144;SDS011;27813;43.516;11.890;2023-02-23T12:19:36;5.47;;;3.78;;
42144;SDS011;27813;43.516;11.890;2023-02-23T12:23:50;7.60;;;4.85;;
42144;SDS011;27813;43.516;11.890;2023-02-23T12:32:55;5.68;;;4.40;;
42144;SDS011;27813;43.516;11.890;2023-02-23T12:42:00;9.27;;;5.35;;
42144;SDS011;27813;43.516;11.890;2023-02-23T12:46:25;10.45;;;5.25;;
42144;SDS011;27813;43.516;11.890;2023-02-23T12:50:38;8.25;;;5.43;;
42144;SDS011;27813;43.516;11.890;2023-02-23T12:54:48;9.18;;;5.70;;
42144;SDS011;27813;43.516;11.890;2023-02-23T13:03:52;9.65;;;5.30;;
42144;SDS011;27813;43.516;11.890;2023-02-23T13:08:21;8.60;;;5.60;;
42144;SDS011;27813;43.516;11.890;2023-02-23T13:16:59;9.95;;;5.68;;
42144;SDS011;27813;43.516;11.890;2023-02-23T13:21:15;10.57;;;5.97;;
42144;SDS011;27813;43.516;11.890;2023-02-23T13:25:37;6.60;;;5.03;;
42144;SDS011;27813;43.516;11.890;2023-02-23T13:33:52;9.75;;;5.45;;
42144;SDS011;27813;43.516;11.890;2023-02-23T13:38:12;8.50;;;5.72;;
42144;SDS011;27813;43.516;11.890;2023-02-23T13:59:50;7.25;;;4.93;;
42144;SDS011;27813;43.516;11.890;2023-02-23T14:04:07;8.13;;;5.35;;
42144;SDS011;27813;43.516;11.890;2023-02-23T14:08:20;8.60;;;5.05;;
42144;SDS011;27813;43.516;11.890;2023-02-23T14:12:40;7.70;;;5.68;;
42144;SDS011;27813;43.516;11.890;2023-02-23T14:21:27;11.38;;;6.07;;
42144;SDS011;27813;43.516;11.890;2023-02-23T14:30:06;8.00;;;4.82;;
42144;SDS011;27813;43.516;11.890;2023-02-23T14:34:45;7.93;;;5.60;;
42144;SDS011;27813;43.516;11.890;2023-02-23T14:39:15;9.60;;;6.35;;
42144;SDS011;27813;43.516;11.890;2023-02-23T14:47:46;9.57;;;6.17;;
42144;SDS011;27813;43.516;11.890;2023-02-23T14:51:55;8.75;;;6.30;;
42144;SDS011;27813;43.516;11.890;2023-02-23T14:56:03;10.15;;;5.82;;
42144;SDS011;27813;43.516;11.890;2023-02-23T15:00:22;11.30;;;6.50;;
42144;SDS011;27813;43.516;11.890;2023-02-23T15:04:29;7.45;;;5.78;;
42144;SDS011;27813;43.516;11.890;2023-02-23T15:12:42;10.25;;;6.75;;
42144;SDS011;27813;43.516;11.890;2023-02-23T15:16:49;14.23;;;10.07;;
42144;SDS011;27813;43.516;11.890;2023-02-23T15:20:53;11.45;;;7.05;;
42144;SDS011;27813;43.516;11.890;2023-02-23T15:24:58;12.07;;;6.63;;
42144;SDS011;27813;43.516;11.890;2023-02-23T15:29:12;24.67;;;13.50;;
42144;SDS011;27813;43.516;11.890;2023-02-23T15:33:18;10.18;;;6.82;;
42144;SDS011;27813;43.516;11.890;2023-02-23T15:37:38;15.20;;;9.83;;
42144;SDS011;27813;43.516;11.890;2023-02-23T15:41:58;205.57;;;73.78;;
42144;SDS011;27813;43.516;11.890;2023-02-23T15:46:03;81.65;;;30.63;;
42144;SDS011;27813;43.516;11.890;2023-02-23T15:54:46;57.17;;;21.98;;
42144;SDS011;27813;43.516;11.890;2023-02-23T15:59:07;29.77;;;13.87;;
42144;SDS011;27813;43.516;11.890;2023-02-23T16:03:23;69.00;;;27.55;;
42144;SDS011;27813;43.516;11.890;2023-02-23T16:07:39;38.38;;;15.45;;
42144;SDS011;27813;43.516;11.890;2023-02-23T16:11:53;43.58;;;19.65;;
42144;SDS011;27813;43.516;11.890;2023-02-23T16:16:04;63.10;;;23.92;;
42144;SDS011;27813;43.516;11.890;2023-02-23T16:24:48;32.53;;;15.65;;
42144;SDS011;27813;43.516;11.890;2023-02-23T16:29:02;14.45;;;7.32;;
42144;SDS011;27813;43.516;11.890;2023-02-23T16:33:21;14.05;;;8.45;;
42144;SDS011;27813;43.516;11.890;2023-02-23T16:37:31;28.80;;;16.70;;
42144;SDS011;27813;43.516;11.890;2023-02-23T16:41:35;38.75;;;21.83;;
42144;SDS011;27813;43.516;11.890;2023-02-23T16:45:40;42.40;;;20.40;;
42144;SDS011;27813;43.516;11.890;2023-02-23T16:49:45;23.65;;;12.95;;
42144;SDS011;27813;43.516;11.890;2023-02-23T16:53:50;130.50;;;65.00;;
42144;SDS011;27813;43.516;11.890;2023-02-23T16:57:59;122.82;;;46.13;;
42144;SDS011;27813;43.516;11.890;2023-02-23T17:02:08;25.60;;;11.80;;
42144;SDS011;27813;43.516;11.890;2023-02-23T17:06:16;14.85;;;9.13;;
42144;SDS011;27813;43.516;11.890;2023-02-23T17:10:21;16.58;;;8.38;;
42144;SDS011;27813;43.516;11.890;2023-02-23T17:14:28;68.53;;;26.00;;
42144;SDS011;27813;43.516;11.890;2023-02-23T17:18:35;20.63;;;11.20;;
42144;SDS011;27813;43.516;11.890;2023-02-23T17:22:46;14.82;;;8.98;;
42144;SDS011;27813;43.516;11.890;2023-02-23T17:26:52;13.30;;;7.93;;
42144;SDS011;27813;43.516;11.890;2023-02-23T17:30:59;13.73;;;7.57;;
42144;SDS011;27813;43.516;11.890;2023-02-23T17:35:05;9.77;;;6.45;;
42144;SDS011;27813;43.516;11.890;2023-02-23T17:43:16;11.35;;;6.80;;
42144;SDS011;27813;43.516;11.890;2023-02-23T17:47:25;11.10;;;6.80;;
42144;SDS011;27813;43.516;11.890;2023-02-23T17:51:29;11.65;;;6.20;;
42144;SDS011;27813;43.516;11.890;2023-02-23T17:55:34;9.63;;;5.07;;
42144;SDS011;27813;43.516;11.890;2023-02-23T17:59:38;13.68;;;6.53;;
42144;SDS011;27813;43.516;11.890;2023-02-23T18:03:43;10.48;;;5.95;;
42144;SDS011;27813;43.516;11.890;2023-02-23T18:07:47;9.50;;;5.10;;
42144;SDS011;27813;43.516;11.890;2023-02-23T18:11:51;8.68;;;5.63;;
42144;SDS011;27813;43.516;11.890;2023-02-23T18:16:00;9.23;;;5.93;;
42144;SDS011;27813;43.516;11.890;2023-02-23T18:20:08;12.57;;;6.30;;
42144;SDS011;27813;43.516;11.890;2023-02-23T18:24:18;16.40;;;8.77;;
42144;SDS011;27813;43.516;11.890;2023-02-23T18:28:24;10.43;;;5.68;;
42144;SDS011;27813;43.516;11.890;2023-02-23T18:32:28;10.38;;;6.25;;
42144;SDS011;27813;43.516;11.890;2023-02-23T18:36:35;8.75;;;5.55;;
42144;SDS011;27813;43.516;11.890;2023-02-23T18:40:47;12.40;;;7.22;;
42144;SDS011;27813;43.516;11.890;2023-02-23T18:44:52;14.27;;;7.55;;
42144;SDS011;27813;43.516;11.890;2023-02-23T18:48:57;11.07;;;6.68;;
42144;SDS011;27813;43.516;11.890;2023-02-23T18:53:08;8.77;;;5.30;;
42144;SDS011;27813;43.516;11.890;2023-02-23T18:57:13;14.15;;;8.35;;
42144;SDS011;27813;43.516;11.890;2023-02-23T19:01:21;9.70;;;6.38;;
42144;SDS011;27813;43.516;11.890;2023-02-23T19:05:30;14.77;;;7.30;;
42144;SDS011;27813;43.516;11.890;2023-02-23T19:09:35;12.25;;;6.35;;
42144;SDS011;27813;43.516;11.890;2023-02-23T19:13:44;10.80;;;5.60;;
42144;SDS011;27813;43.516;11.890;2023-02-23T19:17:50;10.60;;;6.72;;
42144;SDS011;27813;43.516;11.890;2023-02-23T19:21:56;11.65;;;6.40;;
42144;SDS011;27813;43.516;11.890;2023-02-23T19:26:09;10.93;;;6.57;;
42144;SDS011;27813;43.516;11.890;2023-02-23T19:30:16;13.05;;;6.45;;
42144;SDS011;27813;43.516;11.890;2023-02-23T19:34:26;10.48;;;6.00;;
42144;SDS011;27813;43.516;11.890;2023-02-23T19:38:31;10.32;;;5.97;;
42144;SDS011;27813;43.516;11.890;2023-02-23T19:42:36;10.75;;;5.47;;
42144;SDS011;27813;43.516;11.890;2023-02-23T19:46:54;7.85;;;4.70;;
42144;SDS011;27813;43.516;11.890;2023-02-23T19:50:59;9.15;;;4.65;;
42144;SDS011;27813;43.516;11.890;2023-02-23T19:55:04;11.10;;;6.88;;
42144;SDS011;27813;43.516;11.890;2023-02-23T19:59:21;12.85;;;7.28;;
42144;SDS011;27813;43.516;11.890;2023-02-23T20:03:29;11.73;;;6.25;;
42144;SDS011;27813;43.516;11.890;2023-02-23T20:07:34;11.77;;;6.82;;
42144;SDS011;27813;43.516;11.890;2023-02-23T20:11:39;23.30;;;9.88;;
42144;SDS011;27813;43.516;11.890;2023-02-23T20:15:45;14.75;;;7.00;;
42144;SDS011;27813;43.516;11.890;2023-02-23T20:19:53;12.85;;;7.53;;
42144;SDS011;27813;43.516;11.890;2023-02-23T20:24:04;16.92;;;6.68;;
42144;SDS011;27813;43.516;11.890;2023-02-23T20:28:12;8.48;;;5.55;;
42144;SDS011;27813;43.516;11.890;2023-02-23T20:32:21;9.90;;;6.07;;
42144;SDS011;27813;43.516;11.890;2023-02-23T20:36:28;12.25;;;7.20;;
42144;SDS011;27813;43.516;11.890;2023-02-23T20:40:35;28.52;;;14.27;;
42144;SDS011;27813;43.516;11.890;2023-02-23T20:45:02;15.45;;;7.45;;
42144;SDS011;27813;43.516;11.890;2023-02-23T20:49:29;13.05;;;8.43;;
42144;SDS011;27813;43.516;11.890;2023-02-23T20:53:41;14.07;;;7.75;;
42144;SDS011;27813;43.516;11.890;2023-02-23T20:57:52;12.30;;;7.68;;
42144;SDS011;27813;43.516;11.890;2023-02-23T21:02:03;11.25;;;6.55;;
42144;SDS011;27813;43.516;11.890;2023-02-23T21:06:11;15.15;;;7.95;;
42144;SDS011;27813;43.516;11.890;2023-02-23T21:14:22;14.00;;;7.78;;
42144;SDS011;27813;43.516;11.890;2023-02-23T21:18:31;14.25;;;8.65;;
42144;SDS011;27813;43.516;11.890;2023-02-23T21:22:36;12.77;;;7.38;;
42144;SDS011;27813;43.516;11.890;2023-02-23T21:26:41;15.38;;;8.40;;
42144;SDS011;27813;43.516;11.890;2023-02-23T21:30:51;16.70;;;9.13;;
42144;SDS011;27813;43.516;11.890;2023-02-23T21:34:56;15.02;;;7.95;;
42144;SDS011;27813;43.516;11.890;2023-02-23T21:39:05;23.13;;;9.75;;
42144;SDS011;27813;43.516;11.890;2023-02-23T21:43:14;19.98;;;10.30;;
42144;SDS011;27813;43.516;11.890;2023-02-23T21:47:26;20.60;;;11.10;;
42144;SDS011;27813;43.516;11.890;2023-02-23T21:51:30;17.67;;;8.55;;
42144;SDS011;27813;43.516;11.890;2023-02-23T21:55:36;15.68;;;9.27;;
42144;SDS011;27813;43.516;11.890;2023-02-23T21:59:42;15.40;;;8.45;;
42144;SDS011;27813;43.516;11.890;2023-02-23T22:03:47;13.85;;;7.72;;
42144;SDS011;27813;43.516;11.890;2023-02-23T22:07:53;17.73;;;9.65;;
42144;SDS011;27813;43.516;11.890;2023-02-23T22:11:58;28.85;;;13.50;;
42144;SDS011;27813;43.516;11.890;2023-02-23T22:16:07;19.23;;;9.90;;
42144;SDS011;27813;43.516;11.890;2023-02-23T22:24:16;23.65;;;12.82;;
42144;SDS011;27813;43.516;11.890;2023-02-23T22:28:20;23.88;;;12.90;;
42144;SDS011;27813;43.516;11.890;2023-02-23T22:32:28;21.30;;;13.13;;
42144;SDS011;27813;43.516;11.890;2023-02-23T22:36:36;20.88;;;11.55;;
42144;SDS011;27813;43.516;11.890;2023-02-23T22:44:53;30.80;;;16.83;;
42144;SDS011;27813;43.516;11.890;2023-02-23T22:48:58;24.10;;;13.32;;
42144;SDS011;27813;43.516;11.890;2023-02-23T22:53:05;21.65;;;12.27;;
42144;SDS011;27813;43.516;11.890;2023-02-23T22:57:10;23.20;;;13.27;;
42144;SDS011;27813;43.516;11.890;2023-02-23T23:01:15;21.90;;;11.43;;
42144;SDS011;27813;43.516;11.890;2023-02-23T23:05:21;15.38;;;8.82;;
42144;SDS011;27813;43.516;11.890;2023-02-23T23:09:31;16.38;;;9.70;;
42144;SDS011;27813;43.516;11.890;2023-02-23T23:13:36;15.20;;;7.95;;
42144;SDS011;27813;43.516;11.890;2023-02-23T23:17:50;14.82;;;7.68;;
42144;SDS011;27813;43.516;11.890;2023-02-23T23:21:55;16.58;;;8.10;;
42144;SDS011;27813;43.516;11.890;2023-02-23T23:25:59;13.82;;;7.80;;
42144;SDS011;27813;43.516;11.890;2023-02-23T23:30:03;16.92;;;9.00;;
42144;SDS011;27813;43.516;11.890;2023-02-23T23:34:09;16.67;;;9.32;;
42144;SDS011;27813;43.516;11.890;2023-02-23T23:38:15;17.15;;;9.00;;
42144;SDS011;27813;43.516;11.890;2023-02-23T23:42:19;12.98;;;8.00;;
42144;SDS011;27813;43.516;11.890;2023-02-23T23:46:27;15.63;;;8.30;;
42144;SDS011;27813;43.516;11.890;2023-02-23T23:50:34;18.85;;;10.48;;
42144;SDS011;27813;43.516;11.890;2023-02-23T23:54:38;31.43;;;16.43;;
42144;SDS011;27813;43.516;11.890;2023-02-23T23:58:43;27.95;;;13.23;;
